createdAt,value
2022-11-28T00:01:26.853Z,0.89
2022-11-28T00:03:53.874Z,0.84
2022-11-28T00:06:21.246Z,0.62
2022-11-28T00:08:48.152Z,1.00
2022-11-28T00:11:16.070Z,1.10
2022-11-28T00:13:43.349Z,1.00
2022-11-28T00:16:15.150Z,0.88
2022-11-28T00:18:42.553Z,0.43
2022-11-28T00:21:12.194Z,0.83
2022-11-28T00:23:39.448Z,0.75
2022-11-28T00:26:12.733Z,0.74
2022-11-28T00:28:39.535Z,0.41
2022-11-28T00:31:06.519Z,0.73
2022-11-28T00:33:34.033Z,0.61
2022-11-28T00:36:02.710Z,0.75
2022-11-28T00:38:30.051Z,0.72
2022-11-28T00:41:06.021Z,0.65
2022-11-28T00:43:33.260Z,0.76
2022-11-28T00:46:00.319Z,0.99
2022-11-28T00:48:27.319Z,0.85
2022-11-28T00:50:54.231Z,0.96
2022-11-28T00:53:21.366Z,1.02
2022-11-28T00:55:48.131Z,0.74
2022-11-28T00:58:14.737Z,0.92
2022-11-28T01:00:41.576Z,0.87
2022-11-28T01:03:08.487Z,0.79
2022-11-28T01:05:41.461Z,1.02
2022-11-28T01:08:08.216Z,1.02
2022-11-28T01:10:35.052Z,0.89
2022-11-28T01:13:01.658Z,0.95
2022-11-28T01:15:28.400Z,0.94
2022-11-28T01:17:55.503Z,0.75
2022-11-28T01:20:22.190Z,0.98
2022-11-28T01:22:49.519Z,1.06
2022-11-28T01:25:16.277Z,0.90
2022-11-28T01:27:43.510Z,1.11
2022-11-28T01:30:10.273Z,1.19
2022-11-28T01:32:37.167Z,0.90
2022-11-28T01:35:04.148Z,1.14
2022-11-28T01:37:30.831Z,0.73
2022-11-28T01:39:57.591Z,0.99
2022-11-28T01:42:24.695Z,0.86
2022-11-28T01:44:54.520Z,0.87
2022-11-28T01:47:25.767Z,0.72
2022-11-28T01:49:54.248Z,0.71
2022-11-28T01:52:22.117Z,0.74
2022-11-28T01:54:55.165Z,0.84
2022-11-28T01:57:25.847Z,0.81
2022-11-28T02:00:09.204Z,0.28
2022-11-28T02:02:49.227Z,0.66
2022-11-28T02:05:17.930Z,0.13
2022-11-28T02:07:46.240Z,0.24
2022-11-28T02:10:20.561Z,0.64
2022-11-28T02:13:05.754Z,0.60
2022-11-28T02:15:32.596Z,0.63
2022-11-28T02:18:29.253Z,0.59
2022-11-28T02:21:31.227Z,0.67
2022-11-28T02:24:34.595Z,0.48
2022-11-28T02:27:10.021Z,0.48
2022-11-28T02:29:58.679Z,0.71
2022-11-28T02:32:30.934Z,0.84
2022-11-28T02:35:14.856Z,0.84
2022-11-28T02:38:12.505Z,0.81
2022-11-28T02:40:44.330Z,0.47
2022-11-28T02:43:30.092Z,0.79
2022-11-28T02:46:07.999Z,0.85
2022-11-28T02:48:34.600Z,0.86
2022-11-28T02:51:22.187Z,0.87
2022-11-28T02:53:50.950Z,0.90
2022-11-28T02:56:18.185Z,0.82
2022-11-28T02:58:44.992Z,0.79
2022-11-28T03:01:19.824Z,0.55
2022-11-28T03:03:57.434Z,0.90
2022-11-28T03:06:33.223Z,0.85
2022-11-28T03:09:29.666Z,0.80
2022-11-28T03:12:34.165Z,0.85
2022-11-28T03:15:04.925Z,0.71
2022-11-28T03:18:00.705Z,0.87
2022-11-28T03:20:55.942Z,0.89
2022-11-28T03:23:32.774Z,0.82
2022-11-28T03:26:01.641Z,0.84
2022-11-28T03:28:43.633Z,0.88
2022-11-28T03:31:37.045Z,0.89
2022-11-28T03:34:06.456Z,0.82
2022-11-28T03:36:41.284Z,0.74
2022-11-28T03:39:21.941Z,0.69
2022-11-28T03:41:56.022Z,0.52
2022-11-28T03:44:29.658Z,0.70
2022-11-28T03:47:00.852Z,0.42
2022-11-28T03:49:34.125Z,0.36
2022-11-28T03:52:07.375Z,0.02
2022-11-28T03:54:37.701Z,0.22
2022-11-28T03:57:09.159Z,0.79
2022-11-28T03:59:43.474Z,0.83
2022-11-28T04:02:44.849Z,0.79
2022-11-28T04:05:27.147Z,0.69
2022-11-28T04:07:59.512Z,0.78
2022-11-28T04:10:41.501Z,0.75
2022-11-28T04:13:30.129Z,0.77
2022-11-28T04:16:04.160Z,0.79
2022-11-28T04:18:58.798Z,0.82
2022-11-28T04:21:50.317Z,0.74
2022-11-28T04:24:25.459Z,0.75
2022-11-28T04:26:58.526Z,0.93
2022-11-28T04:29:27.404Z,0.95
2022-11-28T04:31:58.286Z,0.88
2022-11-28T04:34:30.220Z,0.99
2022-11-28T04:36:59.202Z,0.98
2022-11-28T04:39:28.667Z,0.35
2022-11-28T04:42:00.060Z,0.70
2022-11-28T04:44:35.765Z,0.89
2022-11-28T04:47:03.061Z,0.89
2022-11-28T04:49:31.441Z,1.01
2022-11-28T04:52:26.988Z,1.02
2022-11-28T04:55:12.191Z,0.87
2022-11-28T04:58:07.499Z,1.14
2022-11-28T05:00:37.412Z,1.07
2022-11-28T05:03:05.544Z,1.11
2022-11-28T05:05:41.216Z,1.23
2022-11-28T05:08:07.981Z,1.16
2022-11-28T05:10:35.274Z,1.08
2022-11-28T05:13:02.105Z,1.10
2022-11-28T05:15:28.720Z,0.91
2022-11-28T05:17:55.297Z,1.01
2022-11-28T05:20:22.191Z,1.04
2022-11-28T05:22:48.931Z,0.99
2022-11-28T05:25:16.644Z,1.08
2022-11-28T05:27:43.376Z,1.11
2022-11-28T05:30:11.258Z,0.87
2022-11-28T05:32:38.022Z,0.88
2022-11-28T05:35:05.634Z,1.01
2022-11-28T05:37:32.413Z,1.10
2022-11-28T05:39:59.447Z,1.16
2022-11-28T05:42:26.342Z,1.21
2022-11-28T05:44:53.163Z,1.22
2022-11-28T05:47:19.874Z,0.59
2022-11-28T05:49:47.390Z,1.16
2022-11-28T05:52:14.135Z,1.06
2022-11-28T05:54:40.919Z,1.09
2022-11-28T05:57:07.999Z,1.03
2022-11-28T05:59:35.077Z,1.18
2022-11-28T06:02:01.965Z,1.28
2022-11-28T06:04:28.910Z,1.08
2022-11-28T06:06:55.781Z,1.29
2022-11-28T06:09:25.811Z,1.29
2022-11-28T06:11:52.900Z,1.40
2022-11-28T06:14:19.587Z,1.36
2022-11-28T06:16:46.485Z,1.30
2022-11-28T06:19:13.713Z,1.37
2022-11-28T06:21:40.722Z,1.29
2022-11-28T06:24:08.141Z,1.00
2022-11-28T06:26:34.971Z,1.30
2022-11-28T06:29:01.771Z,0.89
2022-11-28T06:31:30.668Z,1.19
2022-11-28T06:33:58.736Z,1.13
2022-11-28T06:36:26.495Z,1.18
2022-11-28T06:38:54.375Z,1.15
2022-11-28T06:41:23.129Z,1.19
2022-11-28T06:43:50.259Z,1.24
2022-11-28T06:46:21.914Z,1.23
2022-11-28T06:48:51.080Z,1.13
2022-11-28T06:51:19.215Z,1.18
2022-11-28T06:53:45.953Z,1.07
2022-11-28T06:56:16.248Z,1.27
2022-11-28T06:58:44.265Z,1.24
2022-11-28T07:01:14.473Z,1.28
2022-11-28T07:03:41.670Z,1.41
2022-11-28T07:06:09.356Z,1.31
2022-11-28T07:08:36.985Z,1.24
2022-11-28T07:11:12.421Z,1.33
2022-11-28T07:13:43.596Z,1.33
2022-11-28T07:16:15.907Z,1.51
2022-11-28T07:18:43.304Z,0.77
2022-11-28T07:21:10.424Z,1.07
2022-11-28T07:23:37.556Z,1.01
2022-11-28T07:26:05.351Z,0.84
2022-11-28T07:28:33.784Z,1.50
2022-11-28T07:31:05.225Z,1.41
2022-11-28T07:33:33.005Z,1.38
2022-11-28T07:36:05.078Z,1.39
2022-11-28T07:38:32.553Z,1.06
2022-11-28T07:41:07.187Z,1.44
2022-11-28T07:43:34.179Z,1.32
2022-11-28T07:46:06.875Z,1.60
2022-11-28T07:48:34.992Z,1.24
2022-11-28T07:51:06.976Z,1.55
2022-11-28T07:53:34.294Z,1.55
2022-11-28T07:56:06.486Z,1.44
2022-11-28T07:58:34.911Z,1.01
2022-11-28T08:01:09.129Z,1.59
2022-11-28T08:03:36.150Z,1.68
2022-11-28T08:06:05.021Z,1.79
2022-11-28T08:08:32.757Z,1.90
2022-11-28T08:11:04.276Z,1.83
2022-11-28T08:13:31.300Z,1.86
2022-11-28T08:15:57.971Z,1.60
2022-11-28T08:18:24.875Z,2.05
2022-11-28T08:20:51.525Z,1.91
2022-11-28T08:23:18.156Z,1.89
2022-11-28T08:25:44.902Z,1.88
2022-11-28T08:28:11.665Z,1.89
2022-11-28T08:30:38.317Z,1.70
2022-11-28T08:33:05.046Z,1.81
2022-11-28T08:35:32.158Z,1.80
2022-11-28T08:38:01.837Z,1.80
2022-11-28T08:40:29.634Z,1.85
2022-11-28T08:42:58.429Z,1.85
2022-11-28T08:45:25.528Z,2.00
2022-11-28T08:47:52.115Z,1.49
2022-11-28T08:50:19.170Z,2.10
2022-11-28T08:52:46.206Z,2.15
2022-11-28T08:55:12.913Z,2.16
2022-11-28T08:57:39.547Z,2.10
2022-11-28T09:00:07.207Z,2.02
2022-11-28T09:02:33.796Z,2.21
2022-11-28T09:05:00.606Z,2.08
2022-11-28T09:07:27.558Z,2.05
2022-11-28T09:09:54.733Z,2.07
2022-11-28T09:12:21.318Z,2.00
2022-11-28T09:14:48.089Z,2.14
2022-11-28T09:17:15.973Z,2.08
2022-11-28T09:19:43.283Z,2.13
2022-11-28T09:22:10.131Z,2.05
2022-11-28T09:24:36.923Z,2.08
2022-11-28T09:27:04.433Z,2.39
2022-11-28T09:29:31.707Z,2.39
2022-11-28T09:31:58.504Z,2.43
2022-11-28T09:34:25.182Z,2.31
2022-11-28T09:36:52.009Z,2.40
2022-11-28T09:39:18.580Z,2.43
2022-11-28T09:41:57.054Z,2.51
2022-11-28T09:44:37.386Z,2.59
2022-11-28T09:47:11.684Z,2.80
2022-11-28T09:49:48.904Z,2.74
2022-11-28T09:52:41.307Z,3.00
2022-11-28T09:55:27.316Z,3.12
2022-11-28T09:57:54.830Z,3.39
2022-11-28T10:00:34.248Z,3.55
2022-11-28T10:03:33.062Z,3.65
2022-11-28T10:06:20.104Z,3.73
2022-11-28T10:09:09.633Z,4.04
2022-11-28T10:12:01.864Z,4.37
2022-11-28T10:14:37.569Z,4.59
2022-11-28T10:17:17.508Z,4.77
2022-11-28T10:19:55.161Z,4.69
2022-11-28T10:22:35.633Z,4.50
2022-11-28T10:25:10.870Z,4.18
2022-11-28T10:27:38.269Z,3.87
2022-11-28T10:30:15.593Z,3.71
2022-11-28T10:32:46.469Z,3.88
2022-11-28T10:35:38.883Z,3.98
2022-11-28T10:38:11.974Z,3.97
2022-11-28T10:40:48.755Z,4.26
2022-11-28T10:43:46.840Z,4.69
2022-11-28T10:46:55.272Z,4.50
2022-11-28T10:49:35.055Z,4.22
2022-11-28T10:52:23.366Z,4.14
2022-11-28T10:55:37.517Z,4.10
2022-11-28T10:58:22.685Z,4.40
2022-11-28T11:00:54.656Z,4.28
2022-11-28T11:03:38.607Z,4.08
2022-11-28T11:06:05.917Z,3.94
2022-11-28T11:08:38.492Z,3.81
2022-11-28T11:11:10.819Z,3.74
2022-11-28T11:13:57.494Z,3.65
2022-11-28T11:16:24.298Z,3.57
2022-11-28T11:18:53.842Z,3.64
2022-11-28T11:21:27.356Z,3.66
2022-11-28T11:24:12.020Z,3.82
2022-11-28T11:26:42.142Z,3.66
2022-11-28T11:29:23.606Z,3.72
2022-11-28T11:31:53.213Z,3.72
2022-11-28T11:34:22.665Z,3.88
2022-11-28T11:36:50.312Z,3.60
2022-11-28T11:39:22.088Z,3.61
2022-11-28T11:41:51.856Z,3.59
2022-11-28T11:44:30.813Z,3.49
2022-11-28T11:47:04.064Z,3.52
2022-11-28T11:49:44.449Z,3.69
2022-11-28T11:52:25.655Z,3.57
2022-11-28T11:54:55.059Z,3.50
2022-11-28T11:57:33.068Z,3.37
2022-11-28T12:00:21.811Z,3.20
2022-11-28T12:03:04.773Z,3.31
2022-11-28T12:08:50.455Z,3.07
2022-11-28T12:11:45.600Z,3.09
2022-11-28T12:14:34.565Z,3.11
2022-11-28T12:17:40.872Z,3.20
2022-11-28T12:20:26.991Z,3.14
2022-11-28T12:23:07.592Z,3.06
2022-11-28T12:25:45.516Z,3.28
2022-11-28T12:28:48.757Z,3.43
2022-11-28T12:31:43.283Z,3.40
2022-11-28T12:34:27.970Z,3.36
2022-11-28T12:37:09.773Z,3.56
2022-11-28T12:39:52.000Z,3.46
2022-11-28T12:42:18.511Z,3.40
2022-11-28T12:45:26.531Z,3.15
2022-11-28T12:48:15.412Z,3.51
2022-11-28T12:50:47.161Z,3.52
2022-11-28T12:53:29.158Z,3.59
2022-11-28T12:56:07.914Z,3.57
2022-11-28T12:58:43.980Z,3.48
2022-11-28T13:01:43.480Z,3.27
2022-11-28T13:04:31.490Z,3.36
2022-11-28T13:07:01.151Z,3.35
2022-11-28T13:09:46.440Z,3.26
2022-11-28T13:12:35.071Z,3.10
2022-11-28T13:15:29.162Z,2.94
2022-11-28T13:18:12.215Z,2.90
2022-11-28T13:21:10.929Z,2.86
2022-11-28T13:23:53.106Z,2.90
2022-11-28T13:26:43.978Z,2.92
2022-11-28T13:29:37.971Z,2.99
2022-11-28T13:32:24.166Z,2.95
2022-11-28T13:34:51.703Z,3.05
2022-11-28T13:40:24.535Z,2.98
2022-11-28T13:43:07.213Z,3.00
2022-11-28T13:45:39.195Z,2.88
2022-11-28T13:48:57.577Z,3.00
2022-11-28T13:51:31.870Z,2.98
2022-11-28T13:54:18.227Z,3.00
2022-11-28T13:56:46.373Z,2.94
2022-11-28T13:59:25.401Z,2.91
2022-11-28T14:02:02.097Z,2.85
2022-11-28T14:04:31.251Z,2.86
2022-11-28T14:07:23.507Z,2.89
2022-11-28T14:10:12.411Z,2.80
2022-11-28T14:12:46.251Z,2.73
2022-11-28T14:15:31.891Z,2.72
2022-11-28T14:18:47.733Z,2.81
2022-11-28T14:21:20.697Z,2.80
2022-11-28T14:23:57.751Z,2.81
2022-11-28T14:26:36.128Z,2.51
2022-11-28T14:29:07.117Z,2.65
2022-11-28T14:31:44.560Z,2.47
2022-11-28T14:34:46.113Z,2.47
2022-11-28T14:37:21.842Z,2.82
2022-11-28T14:39:49.789Z,2.60
2022-11-28T14:42:36.925Z,2.88
2022-11-28T14:45:41.273Z,2.90
2022-11-28T14:48:24.098Z,2.65
2022-11-28T14:51:00.830Z,2.61
2022-11-28T14:53:34.873Z,2.69
2022-11-28T14:56:23.961Z,2.69
2022-11-28T14:58:53.179Z,2.56
2022-11-28T15:01:49.869Z,2.46
2022-11-28T15:04:44.324Z,2.64
2022-11-28T15:07:37.313Z,2.65
2022-11-28T15:10:39.033Z,2.57
2022-11-28T15:13:29.000Z,2.37
2022-11-28T15:15:56.265Z,2.51
2022-11-28T15:18:25.764Z,2.05
2022-11-28T15:20:58.982Z,2.57
2022-11-28T15:23:29.984Z,2.37
2022-11-28T15:25:58.213Z,2.19
2022-11-28T15:28:29.065Z,2.63
2022-11-28T15:30:58.354Z,2.58
2022-11-28T15:33:26.953Z,2.59
2022-11-28T15:36:13.211Z,2.50
2022-11-28T15:38:43.488Z,2.05
2022-11-28T15:41:10.320Z,1.98
2022-11-28T15:43:42.309Z,2.13
2022-11-28T15:46:24.324Z,2.34
2022-11-28T15:48:52.949Z,2.61
2022-11-28T15:51:35.058Z,2.19
2022-11-28T15:54:05.432Z,2.06
2022-11-28T15:56:35.049Z,2.61
2022-11-28T15:59:01.752Z,2.55
2022-11-28T16:01:30.535Z,2.36
2022-11-28T16:04:28.285Z,2.36
2022-11-28T16:06:57.605Z,2.03
2022-11-28T16:09:37.380Z,2.45
2022-11-28T16:12:07.089Z,2.21
2022-11-28T16:14:37.194Z,2.21
2022-11-28T16:17:13.344Z,2.42
2022-11-28T16:19:41.722Z,2.45
2022-11-28T16:22:11.412Z,2.50
2022-11-28T16:24:55.636Z,2.54
2022-11-28T16:27:34.371Z,2.11
2022-11-28T16:30:02.826Z,2.05
2022-11-28T16:32:40.531Z,2.51
2022-11-28T16:35:12.397Z,2.48
2022-11-28T16:37:39.978Z,2.14
2022-11-28T16:40:13.714Z,2.44
2022-11-28T16:42:40.788Z,2.39
2022-11-28T16:45:17.634Z,2.34
2022-11-28T16:47:45.754Z,2.17
2022-11-28T16:50:22.512Z,2.30
2022-11-28T16:52:53.295Z,2.21
2022-11-28T16:55:29.190Z,2.26
2022-11-28T16:58:07.769Z,2.30
2022-11-28T17:00:35.394Z,2.30
2022-11-28T17:03:03.874Z,2.38
2022-11-28T17:05:31.299Z,2.38
2022-11-28T17:07:58.262Z,2.15
2022-11-28T17:10:27.747Z,2.41
2022-11-28T17:12:55.207Z,2.46
2022-11-28T17:15:23.648Z,2.37
2022-11-28T17:17:50.352Z,2.52
2022-11-28T17:20:18.053Z,2.32
2022-11-28T17:22:48.129Z,2.11
2022-11-28T17:25:16.871Z,2.07
2022-11-28T17:27:43.716Z,2.08
2022-11-28T17:30:17.258Z,2.29
2022-11-28T17:32:44.609Z,2.37
2022-11-28T17:35:15.172Z,2.05
2022-11-28T17:37:41.847Z,2.28
2022-11-28T17:40:27.365Z,1.93
2022-11-28T17:42:54.405Z,2.25
2022-11-28T17:45:22.821Z,2.33
2022-11-28T17:47:49.710Z,2.38
2022-11-28T17:50:17.584Z,2.39
2022-11-28T17:52:44.780Z,2.33
2022-11-28T17:55:11.702Z,2.32
2022-11-28T17:57:38.495Z,2.48
2022-11-28T18:00:09.655Z,2.45
2022-11-28T18:02:39.196Z,2.38
2022-11-28T18:05:06.248Z,2.40
2022-11-28T18:07:33.099Z,2.25
2022-11-28T18:10:00.127Z,2.32
2022-11-28T18:12:27.069Z,2.38
2022-11-28T18:14:53.840Z,2.36
2022-11-28T18:17:20.553Z,2.18
2022-11-28T18:19:47.228Z,2.09
2022-11-28T18:22:14.232Z,2.30
2022-11-28T18:24:41.007Z,2.20
2022-11-28T18:27:07.908Z,2.20
2022-11-28T18:29:34.832Z,1.93
2022-11-28T18:32:02.286Z,2.28
2022-11-28T18:34:29.375Z,2.09
2022-11-28T18:37:00.685Z,2.21
2022-11-28T18:39:27.985Z,2.25
2022-11-28T18:41:55.222Z,2.20
2022-11-28T18:44:22.711Z,2.09
2022-11-28T18:46:49.349Z,2.09
2022-11-28T18:49:16.662Z,2.12
2022-11-28T18:51:43.364Z,2.16
2022-11-28T18:54:09.997Z,2.19
2022-11-28T18:56:36.875Z,2.06
2022-11-28T18:59:04.725Z,2.16
2022-11-28T19:01:33.845Z,2.15
2022-11-28T19:04:04.747Z,2.10
2022-11-28T19:06:32.011Z,2.21
2022-11-28T19:09:02.289Z,2.18
2022-11-28T19:11:29.678Z,2.16
2022-11-28T19:13:56.922Z,2.15
2022-11-28T19:16:30.259Z,2.05
2022-11-28T19:18:58.269Z,2.14
2022-11-28T19:21:28.102Z,1.89
2022-11-28T19:23:57.548Z,2.02
2022-11-28T19:26:27.005Z,1.71
2022-11-28T19:28:54.929Z,1.94
2022-11-28T19:31:32.889Z,2.00
2022-11-28T19:34:07.979Z,1.85
2022-11-28T19:36:39.687Z,1.90
2022-11-28T19:39:07.865Z,1.87
2022-11-28T19:41:35.499Z,1.81
2022-11-28T19:44:02.165Z,1.91
2022-11-28T19:46:35.036Z,1.78
2022-11-28T19:49:03.160Z,1.93
2022-11-28T19:51:30.335Z,1.76
2022-11-28T19:54:03.292Z,1.82
2022-11-28T19:56:31.493Z,1.61
2022-11-28T19:58:59.142Z,1.87
2022-11-28T20:01:26.934Z,1.79
2022-11-28T20:03:54.091Z,1.97
2022-11-28T20:06:26.840Z,1.96
2022-11-28T20:08:56.427Z,2.05
2022-11-28T20:11:26.333Z,2.05
2022-11-28T20:14:05.019Z,2.17
2022-11-28T20:16:33.325Z,1.94
2022-11-28T20:19:01.667Z,2.10
2022-11-28T20:21:29.319Z,2.25
2022-11-28T20:24:02.675Z,2.22
2022-11-28T20:26:30.163Z,2.21
2022-11-28T20:28:58.296Z,2.16
2022-11-28T20:31:25.291Z,2.09
2022-11-28T20:33:53.578Z,2.08
2022-11-28T20:36:23.847Z,2.18
2022-11-28T20:38:54.501Z,2.17
2022-11-28T20:41:23.039Z,2.02
2022-11-28T20:43:50.344Z,2.22
2022-11-28T20:46:28.962Z,2.16
2022-11-28T20:48:58.268Z,2.09
2022-11-28T20:51:26.821Z,2.13
2022-11-28T20:53:55.291Z,2.28
2022-11-28T20:56:24.874Z,2.29
2022-11-28T20:58:52.071Z,2.27
2022-11-28T21:01:24.869Z,2.42
2022-11-28T21:03:52.378Z,1.98
2022-11-28T21:06:19.700Z,2.29
2022-11-28T21:08:47.174Z,2.34
2022-11-28T21:11:50.164Z,2.36
2022-11-28T21:14:08.854Z,2.32
2022-11-28T21:16:35.548Z,2.19
2022-11-28T21:19:05.687Z,2.19
2022-11-28T21:21:33.732Z,2.19
2022-11-28T21:24:03.782Z,2.21
2022-11-28T21:26:33.051Z,2.07
2022-11-28T21:29:08.160Z,2.15
2022-11-28T21:31:38.270Z,2.14
2022-11-28T21:34:04.933Z,2.20
2022-11-28T21:36:31.922Z,2.14
2022-11-28T21:39:00.952Z,2.14
2022-11-28T21:41:30.360Z,2.05
2022-11-28T21:43:58.344Z,2.08
2022-11-28T21:46:26.275Z,2.13
2022-11-28T21:48:53.575Z,1.94
2022-11-28T21:51:24.154Z,1.91
2022-11-28T21:53:51.408Z,1.99
2022-11-28T21:56:18.288Z,2.02
2022-11-28T21:58:45.066Z,2.01
2022-11-28T22:01:14.093Z,1.98
2022-11-28T22:03:41.706Z,1.91
2022-11-28T22:06:16.329Z,2.05
2022-11-28T22:08:43.666Z,2.02
2022-11-28T22:11:13.408Z,1.93
2022-11-28T22:13:42.352Z,1.95
2022-11-28T22:16:20.892Z,2.02
2022-11-28T22:18:48.622Z,2.04
2022-11-28T22:24:03.367Z,1.91
2022-11-28T22:26:30.224Z,1.80
2022-11-28T22:28:58.806Z,1.90
2022-11-28T22:31:25.855Z,1.86
2022-11-28T22:33:53.471Z,1.86
2022-11-28T22:36:21.124Z,1.97
2022-11-28T22:38:49.724Z,2.05
2022-11-28T22:41:24.790Z,1.98
2022-11-28T22:44:00.412Z,1.85
2022-11-28T22:46:27.579Z,1.96
2022-11-28T22:48:54.256Z,1.88
2022-11-28T22:51:24.953Z,2.04
2022-11-28T22:53:56.686Z,2.04
2022-11-28T22:56:23.524Z,1.93
2022-11-28T22:58:50.192Z,2.00
2022-11-28T23:01:19.808Z,2.02
2022-11-28T23:03:46.964Z,1.95
2022-11-28T23:06:16.040Z,1.95
2022-11-28T23:08:42.818Z,1.94
2022-11-28T23:11:12.369Z,1.95
2022-11-28T23:13:39.282Z,1.99
2022-11-28T23:16:18.768Z,1.83
2022-11-28T23:18:47.485Z,1.80
2022-11-28T23:21:15.010Z,1.79
2022-11-28T23:23:43.944Z,1.74
2022-11-28T23:26:13.202Z,1.60
2022-11-28T23:28:39.892Z,1.73
2022-11-28T23:31:15.528Z,1.61
2022-11-28T23:33:42.534Z,1.57
2022-11-28T23:36:13.511Z,1.61
2022-11-28T23:38:40.624Z,1.52
2022-11-28T23:41:07.247Z,1.53
2022-11-28T23:43:33.955Z,1.57
2022-11-28T23:46:00.930Z,1.59
2022-11-28T23:48:27.585Z,1.53
2022-11-28T23:50:54.256Z,1.59
2022-11-28T23:53:21.134Z,1.50
2022-11-28T23:55:47.919Z,1.58
2022-11-28T23:58:15.420Z,1.70
